Pos First Name Last Name YOB Country Start
Num
Time Swim T1 Bike T2 Run
1 Mathilde Gautier 1995 FRA 7 01:00:43 00:10:39 00:01:17 00:30:14 00:00:39 00:17:56
2 Anna Godoy Contreras 1992 ESP 1 01:00:43 00:10:38 00:01:16 00:30:17 00:00:40 00:17:54
3 Michelle Flipo 1988 MEX 5 01:00:56 00:10:38 00:01:16 00:30:14 00:00:41 00:18:08
4 Natalie Van Coevorden 1992 AUS 2 01:01:26 00:10:35 00:01:20 00:30:17 00:00:40 00:18:35
5 Sara Perez Sala 1988 ESP 6 01:01:31 00:10:36 00:01:17 00:30:19 00:00:42 00:18:38
6 Marta Pintanel Raymundo 1999 ESP 14 01:02:17 00:11:01 00:01:17 00:31:08 00:00:38 00:18:13
7 Cecilia Santamaria Surroca 1997 ESP 8 01:02:21 00:11:02 00:01:21 00:31:02 00:00:34 00:18:23
8 Xisca Tous 1992 ESP 4 01:02:34 00:10:52 00:01:15 00:31:21 00:00:38 00:18:29
9 Sara Guerrero Manso 1997 ESP 9 01:02:38 00:10:57 00:01:18 00:31:13 00:00:38 00:18:34
10 Zuzana Michalickova 2002 SVK 18 01:02:48 00:11:06 00:01:17 00:31:06 00:00:37 00:18:44
11 Gillian Sanders 1981 RSA 3 01:02:53 00:10:56 00:01:22 00:31:12 00:00:40 00:18:45
12 Sofía Aguayo Mauri 1997 ESP 21 01:02:58 00:10:59 00:01:15 00:31:12 00:00:41 00:18:52
13 Helena Moragas Molina 2003 ESP 17 01:03:11 00:11:04 00:01:17 00:31:03 00:00:41 00:19:07
14 Stine Dale 1998 NOR 12 01:03:44 00:11:03 00:01:18 00:31:08 00:00:45 00:19:32
15 Gina Sereno 1995 USA 10 01:03:56 00:11:14 00:01:20 00:32:16 00:00:47 00:18:21
16 María Casals Mojica 2002 ESP 23 01:04:05 00:11:15 00:01:15 00:32:16 00:00:47 00:18:33
17 Claudia Perez Pay 1999 ESP 31 01:04:15 00:10:40 00:01:19 00:31:29 00:00:36 00:20:11
18 Iratxe Arenal Arribas 2001 ESP 22 01:04:24 00:10:55 00:01:12 00:31:18 00:00:37 00:20:23
19 Dorka Putnóczki 1999 HUN 11 01:05:05 00:10:36 00:01:21 00:31:27 00:00:41 00:21:01
20 Camila Alonso Aradas 1994 ESP 15 01:05:10 00:11:13 00:01:17 00:32:16 00:00:39 00:19:47
21 Natalia Hidalgo Martínez 2001 ESP 20 01:05:14 00:11:11 00:01:14 00:32:22 00:00:34 00:19:54
22 Paula Herrero Aguirre 1996 ESP 27 01:05:19 00:11:33 00:01:28 00:33:19 00:00:44 00:18:15
23 Laura Duran Morote 2000 ESP 16 01:05:55 00:11:17 00:01:17 00:32:23 00:00:38 00:20:21
24 Sonia Ruiz Melguizo 1991 ESP 29 01:05:59 00:10:51 00:01:19 00:32:38 00:00:41 00:20:32
25 Sara Alemany Seguer 2000 ESP 25 01:06:58 00:11:30 00:01:26 00:33:22 00:00:40 00:20:00
26 Anna Flaquer 1993 ESP 24 01:07:18 00:11:19 00:01:23 00:33:40 00:00:47 00:20:10
27 Clara Aulinas Prat 2001 ESP 28 01:07:45 00:11:00 00:01:26 00:32:23 00:00:47 00:22:10
28 Laura Rodríguez Salinas 1999 ESP 30 01:08:45 00:11:14 00:01:26 00:33:37 00:00:47 00:21:42
29 Yaiza Saiz Serrano 2000 ESP 19 01:10:45 00:12:26 00:01:25 00:35:36 00:00:45 00:20:34
30 María José Mojica Baquero 1998 ESP 26 01:11:15 00:11:01 00:01:39 00:33:38 00:00:52 00:24:06
Program notes:

Technical delegate: Esther Sanchez/ESP. Head referee: Juan Jose Juste/ESP. Competition jury: Esther Sanchez/ESP, Alicia García/ESP, Francina Guardiola/ESP.
Distances: swim 750 m (1 lap), bike 20 km (4 laps), run 5 km (2 laps)
Water temperature 19.0ºC, air temperature 17.5ºC. Wetsuits allowed.
Athlete #28 Aulinas Prat/ESP served a 10 seconds penalty during the run segment.